sensor_id;sensor_type;location;lat;lon;timestamp;pressure;altitude;pressure_sealevel;temperature;humidity
38558;BME280;24333;42.626;23.308;2023-01-30T00:36:05;92359.41;;;-2.92;100.00
38558;BME280;24333;42.626;23.308;2023-01-30T00:38:31;92371.03;;;-2.83;100.00
38558;BME280;24333;42.626;23.308;2023-01-30T00:40:56;92367.00;;;-2.80;100.00
38558;BME280;24333;42.626;23.308;2023-01-30T00:43:21;92364.16;;;-2.89;100.00
38558;BME280;24333;42.626;23.308;2023-01-30T00:46:25;92364.38;;;-2.85;100.00
38558;BME280;24333;42.626;23.308;2023-01-30T00:49:27;92365.47;;;-2.86;100.00
38558;BME280;24333;42.626;23.308;2023-01-30T01:05:57;92348.84;;;-3.22;100.00
38558;BME280;24333;42.626;23.308;2023-01-30T01:08:22;92351.28;;;-3.25;100.00
38558;BME280;24333;42.626;23.308;2023-01-30T01:10:48;92339.75;;;-3.21;100.00
38558;BME280;24333;42.626;23.308;2023-01-30T01:13:13;92348.28;;;-3.18;100.00
38558;BME280;24333;42.626;23.308;2023-01-30T01:15:39;92335.50;;;-3.22;100.00
38558;BME280;24333;42.626;23.308;2023-01-30T01:18:05;92345.59;;;-3.18;100.00
38558;BME280;24333;42.626;23.308;2023-01-30T01:20:31;92343.88;;;-3.09;100.00
38558;BME280;24333;42.626;23.308;2023-01-30T01:22:56;92342.72;;;-3.03;100.00
38558;BME280;24333;42.626;23.308;2023-01-30T01:25:23;92335.53;;;-3.02;100.00
38558;BME280;24333;42.626;23.308;2023-01-30T01:27:49;92332.13;;;-3.08;100.00
38558;BME280;24333;42.626;23.308;2023-01-30T01:30:16;92320.75;;;-3.14;100.00
38558;BME280;24333;42.626;23.308;2023-01-30T01:32:41;92322.53;;;-3.09;100.00
38558;BME280;24333;42.626;23.308;2023-01-30T01:35:07;92326.00;;;-3.09;100.00
38558;BME280;24333;42.626;23.308;2023-01-30T01:37:33;92332.34;;;-3.05;100.00
38558;BME280;24333;42.626;23.308;2023-01-30T01:39:58;92330.84;;;-2.92;100.00
38558;BME280;24333;42.626;23.308;2023-01-30T01:42:42;92321.19;;;-3.07;100.00
38558;BME280;24333;42.626;23.308;2023-01-30T01:47:35;92324.50;;;-2.96;100.00
38558;BME280;24333;42.626;23.308;2023-01-30T01:50:03;92313.00;;;-3.15;100.00
38558;BME280;24333;42.626;23.308;2023-01-30T01:52:29;92332.06;;;-3.03;100.00
38558;BME280;24333;42.626;23.308;2023-01-30T01:55:01;92333.53;;;-2.92;100.00
38558;BME280;24333;42.626;23.308;2023-01-30T01:58:10;92324.78;;;-2.97;100.00
38558;BME280;24333;42.626;23.308;2023-01-30T02:00:38;92311.16;;;-2.96;100.00
38558;BME280;24333;42.626;23.308;2023-01-30T02:03:06;92308.63;;;-3.06;100.00
38558;BME280;24333;42.626;23.308;2023-01-30T02:05:37;92328.19;;;-2.92;100.00
38558;BME280;24333;42.626;23.308;2023-01-30T02:08:32;92328.25;;;-2.97;100.00
38558;BME280;24333;42.626;23.308;2023-01-30T02:11:04;92331.84;;;-3.07;100.00
38558;BME280;24333;42.626;23.308;2023-01-30T02:13:32;92317.06;;;-3.18;100.00
38558;BME280;24333;42.626;23.308;2023-01-30T02:16:00;92339.13;;;-3.12;100.00
38558;BME280;24333;42.626;23.308;2023-01-30T02:18:27;92322.34;;;-3.37;100.00
38558;BME280;24333;42.626;23.308;2023-01-30T02:37:14;92348.00;;;-3.66;100.00
38558;BME280;24333;42.626;23.308;2023-01-30T02:50:18;92323.06;;;-3.75;100.00
38558;BME280;24333;42.626;23.308;2023-01-30T02:52:45;92319.38;;;-3.79;100.00
38558;BME280;24333;42.626;23.308;2023-01-30T02:55:23;92324.53;;;-3.64;100.00
38558;BME280;24333;42.626;23.308;2023-01-30T02:57:49;92312.16;;;-3.79;100.00
38558;BME280;24333;42.626;23.308;2023-01-30T03:00:22;92309.50;;;-3.79;100.00
38558;BME280;24333;42.626;23.308;2023-01-30T03:11:12;92335.13;;;-3.83;100.00
38558;BME280;24333;42.626;23.308;2023-01-30T03:16:25;92319.44;;;-3.84;100.00
38558;BME280;24333;42.626;23.308;2023-01-30T03:18:52;92307.06;;;-3.99;100.00
38558;BME280;24333;42.626;23.308;2023-01-30T03:21:18;92317.50;;;-3.79;100.00
38558;BME280;24333;42.626;23.308;2023-01-30T03:23:44;92312.50;;;-3.85;100.00
38558;BME280;24333;42.626;23.308;2023-01-30T03:26:17;92299.22;;;-3.90;100.00
38558;BME280;24333;42.626;23.308;2023-01-30T03:28:45;92294.69;;;-3.90;100.00
38558;BME280;24333;42.626;23.308;2023-01-30T03:31:13;92289.94;;;-3.93;100.00
38558;BME280;24333;42.626;23.308;2023-01-30T03:33:39;92282.84;;;-4.03;100.00
38558;BME280;24333;42.626;23.308;2023-01-30T03:36:04;92280.41;;;-3.99;100.00
38558;BME280;24333;42.626;23.308;2023-01-30T03:38:30;92269.00;;;-4.05;100.00
38558;BME280;24333;42.626;23.308;2023-01-30T03:40:55;92284.66;;;-3.98;100.00
38558;BME280;24333;42.626;23.308;2023-01-30T03:43:21;92267.53;;;-3.92;100.00
38558;BME280;24333;42.626;23.308;2023-01-30T03:45:46;92288.09;;;-3.98;100.00
38558;BME280;24333;42.626;23.308;2023-01-30T03:48:19;92283.59;;;-3.97;100.00
38558;BME280;24333;42.626;23.308;2023-01-30T03:50:44;92282.50;;;-3.96;100.00
38558;BME280;24333;42.626;23.308;2023-01-30T03:53:09;92285.34;;;-3.87;100.00
38558;BME280;24333;42.626;23.308;2023-01-30T03:55:35;92280.88;;;-3.92;100.00
38558;BME280;24333;42.626;23.308;2023-01-30T03:58:01;92261.72;;;-3.94;100.00
38558;BME280;24333;42.626;23.308;2023-01-30T04:00:27;92279.72;;;-3.86;100.00
38558;BME280;24333;42.626;23.308;2023-01-30T04:02:52;92261.81;;;-4.04;100.00
38558;BME280;24333;42.626;23.308;2023-01-30T04:05:19;92272.03;;;-3.87;100.00
38558;BME280;24333;42.626;23.308;2023-01-30T04:07:45;92259.50;;;-3.87;100.00
38558;BME280;24333;42.626;23.308;2023-01-30T04:10:10;92252.13;;;-3.95;100.00
38558;BME280;24333;42.626;23.308;2023-01-30T04:12:40;92262.97;;;-3.86;100.00
38558;BME280;24333;42.626;23.308;2023-01-30T04:15:05;92254.41;;;-3.83;100.00
38558;BME280;24333;42.626;23.308;2023-01-30T04:17:32;92274.84;;;-3.79;100.00
38558;BME280;24333;42.626;23.308;2023-01-30T04:19:57;92264.31;;;-3.89;100.00
38558;BME280;24333;42.626;23.308;2023-01-30T04:22:23;92272.63;;;-3.96;100.00
38558;BME280;24333;42.626;23.308;2023-01-30T04:24:48;92266.91;;;-3.84;100.00
38558;BME280;24333;42.626;23.308;2023-01-30T04:27:13;92272.03;;;-3.87;100.00
38558;BME280;24333;42.626;23.308;2023-01-30T04:29:39;92270.66;;;-3.85;100.00
38558;BME280;24333;42.626;23.308;2023-01-30T04:32:04;92267.47;;;-3.87;100.00
38558;BME280;24333;42.626;23.308;2023-01-30T04:34:30;92276.22;;;-3.81;100.00
38558;BME280;24333;42.626;23.308;2023-01-30T04:37:03;92250.53;;;-3.96;100.00
38558;BME280;24333;42.626;23.308;2023-01-30T04:39:32;92268.06;;;-3.90;100.00
38558;BME280;24333;42.626;23.308;2023-01-30T04:41:57;92278.59;;;-3.80;100.00
38558;BME280;24333;42.626;23.308;2023-01-30T04:44:23;92273.84;;;-3.83;100.00
38558;BME280;24333;42.626;23.308;2023-01-30T04:46:48;92269.00;;;-3.81;100.00
38558;BME280;24333;42.626;23.308;2023-01-30T04:49:22;92269.06;;;-3.86;100.00
38558;BME280;24333;42.626;23.308;2023-01-30T04:51:47;92257.56;;;-3.81;100.00
38558;BME280;24333;42.626;23.308;2023-01-30T04:54:13;92253.09;;;-3.86;100.00
38558;BME280;24333;42.626;23.308;2023-01-30T04:56:39;92257.63;;;-3.86;100.00
38558;BME280;24333;42.626;23.308;2023-01-30T04:59:05;92248.91;;;-3.92;100.00
38558;BME280;24333;42.626;23.308;2023-01-30T05:01:39;92226.63;;;-4.01;100.00
38558;BME280;24333;42.626;23.308;2023-01-30T05:24:36;92253.44;;;-3.68;100.00
38558;BME280;24333;42.626;23.308;2023-01-30T05:27:07;92256.13;;;-3.73;100.00
38558;BME280;24333;42.626;23.308;2023-01-30T05:29:32;92253.97;;;-3.71;100.00
38558;BME280;24333;42.626;23.308;2023-01-30T05:31:58;92269.13;;;-3.67;100.00
38558;BME280;24333;42.626;23.308;2023-01-30T05:34:23;92257.94;;;-3.69;100.00
38558;BME280;24333;42.626;23.308;2023-01-30T05:36:48;92260.94;;;-3.51;100.00
38558;BME280;24333;42.626;23.308;2023-01-30T05:39:14;92261.16;;;-3.47;100.00
38558;BME280;24333;42.626;23.308;2023-01-30T05:41:40;92258.81;;;-3.54;100.00
38558;BME280;24333;42.626;23.308;2023-01-30T05:44:05;92242.31;;;-3.56;100.00
38558;BME280;24333;42.626;23.308;2023-01-30T05:46:31;92250.28;;;-3.51;100.00
38558;BME280;24333;42.626;23.308;2023-01-30T05:48:56;92253.44;;;-3.68;100.00
38558;BME280;24333;42.626;23.308;2023-01-30T05:51:24;92267.63;;;-3.54;100.00
38558;BME280;24333;42.626;23.308;2023-01-30T05:53:50;92272.59;;;-3.66;100.00
38558;BME280;24333;42.626;23.308;2023-01-30T05:56:16;92250.47;;;-3.67;100.00
38558;BME280;24333;42.626;23.308;2023-01-30T05:58:42;92265.59;;;-3.62;100.00
38558;BME280;24333;42.626;23.308;2023-01-30T06:01:10;92274.63;;;-3.58;100.00
38558;BME280;24333;42.626;23.308;2023-01-30T06:03:37;92264.28;;;-3.65;100.00
38558;BME280;24333;42.626;23.308;2023-01-30T06:06:04;92276.28;;;-3.62;100.00
38558;BME280;24333;42.626;23.308;2023-01-30T06:08:30;92266.75;;;-3.68;100.00
38558;BME280;24333;42.626;23.308;2023-01-30T06:11:04;92264.03;;;-3.63;100.00
38558;BME280;24333;42.626;23.308;2023-01-30T06:13:29;92272.47;;;-3.56;100.00
38558;BME280;24333;42.626;23.308;2023-01-30T06:15:55;92270.47;;;-3.45;100.00
38558;BME280;24333;42.626;23.308;2023-01-30T06:18:20;92266.56;;;-3.53;100.00
38558;BME280;24333;42.626;23.308;2023-01-30T06:20:50;92262.22;;;-3.49;100.00
38558;BME280;24333;42.626;23.308;2023-01-30T06:23:16;92252.13;;;-3.52;100.00
38558;BME280;24333;42.626;23.308;2023-01-30T06:25:46;92263.25;;;-3.44;100.00
38558;BME280;24333;42.626;23.308;2023-01-30T06:28:12;92255.88;;;-3.53;100.00
38558;BME280;24333;42.626;23.308;2023-01-30T06:30:38;92250.75;;;-3.68;100.00
38558;BME280;24333;42.626;23.308;2023-01-30T06:33:05;92253.94;;;-3.66;100.00
38558;BME280;24333;42.626;23.308;2023-01-30T06:35:31;92261.69;;;-3.70;100.00
38558;BME280;24333;42.626;23.308;2023-01-30T06:37:56;92262.13;;;-3.63;100.00
38558;BME280;24333;42.626;23.308;2023-01-30T06:40:22;92264.59;;;-3.66;100.00
38558;BME280;24333;42.626;23.308;2023-01-30T06:42:48;92257.72;;;-3.72;100.00
38558;BME280;24333;42.626;23.308;2023-01-30T06:45:17;92272.09;;;-3.68;100.00
38558;BME280;24333;42.626;23.308;2023-01-30T06:47:51;92267.84;;;-3.69;100.00
38558;BME280;24333;42.626;23.308;2023-01-30T06:50:20;92258.19;;;-3.65;100.00
38558;BME280;24333;42.626;23.308;2023-01-30T06:52:47;92257.38;;;-3.66;100.00
38558;BME280;24333;42.626;23.308;2023-01-30T06:55:16;92271.56;;;-3.70;100.00
38558;BME280;24333;42.626;23.308;2023-01-30T06:57:45;92270.50;;;-3.69;100.00
38558;BME280;24333;42.626;23.308;2023-01-30T07:00:16;92270.19;;;-3.68;100.00
38558;BME280;24333;42.626;23.308;2023-01-30T07:02:42;92278.63;;;-3.60;100.00
38558;BME280;24333;42.626;23.308;2023-01-30T07:05:14;92267.03;;;-3.70;100.00
38558;BME280;24333;42.626;23.308;2023-01-30T07:07:40;92269.19;;;-3.72;100.00
38558;BME280;24333;42.626;23.308;2023-01-30T07:10:06;92283.53;;;-3.68;100.00
38558;BME280;24333;42.626;23.308;2023-01-30T07:12:32;92255.97;;;-3.82;100.00
38558;BME280;24333;42.626;23.308;2023-01-30T07:14:57;92273.72;;;-3.72;100.00
38558;BME280;24333;42.626;23.308;2023-01-30T07:17:23;92273.31;;;-3.60;100.00
38558;BME280;24333;42.626;23.308;2023-01-30T07:19:49;92289.47;;;-3.52;100.00
38558;BME280;24333;42.626;23.308;2023-01-30T07:22:14;92277.97;;;-3.71;100.00
38558;BME280;24333;42.626;23.308;2023-01-30T07:24:40;92279.03;;;-3.72;100.00
38558;BME280;24333;42.626;23.308;2023-01-30T07:27:08;92279.13;;;-3.58;100.00
38558;BME280;24333;42.626;23.308;2023-01-30T07:29:35;92280.63;;;-3.71;100.00
38558;BME280;24333;42.626;23.308;2023-01-30T07:32:01;92266.91;;;-3.84;100.00
38558;BME280;24333;42.626;23.308;2023-01-30T07:34:27;92293.91;;;-3.66;100.00
38558;BME280;24333;42.626;23.308;2023-01-30T07:36:53;92283.91;;;-3.80;100.00
38558;BME280;24333;42.626;23.308;2023-01-30T07:39:18;92303.78;;;-3.67;100.00
38558;BME280;24333;42.626;23.308;2023-01-30T07:41:44;92303.56;;;-3.70;100.00
38558;BME280;24333;42.626;23.308;2023-01-30T07:44:11;92303.44;;;-3.60;100.00
38558;BME280;24333;42.626;23.308;2023-01-30T07:46:37;92292.47;;;-3.58;100.00
38558;BME280;24333;42.626;23.308;2023-01-30T07:49:03;92306.81;;;-3.54;100.00
38558;BME280;24333;42.626;23.308;2023-01-30T07:51:29;92285.84;;;-3.61;100.00
38558;BME280;24333;42.626;23.308;2023-01-30T08:34:12;92263.69;;;-2.80;100.00
38558;BME280;24333;42.626;23.308;2023-01-30T08:37:03;92232.59;;;-2.89;100.00
38558;BME280;24333;42.626;23.308;2023-01-30T08:39:31;92252.63;;;-2.73;100.00
38558;BME280;24333;42.626;23.308;2023-01-30T08:41:59;92229.59;;;-2.69;100.00
38558;BME280;24333;42.626;23.308;2023-01-30T08:44:56;92249.97;;;-2.40;100.00
38558;BME280;24333;42.626;23.308;2023-01-30T08:47:32;92227.44;;;-2.67;100.00
38558;BME280;24333;42.626;23.308;2023-01-30T08:50:08;92225.47;;;-2.61;100.00
38558;BME280;24333;42.626;23.308;2023-01-30T08:52:34;92217.34;;;-2.70;100.00
38558;BME280;24333;42.626;23.308;2023-01-30T08:55:01;92225.38;;;-2.56;100.00
38558;BME280;24333;42.626;23.308;2023-01-30T08:57:28;92211.41;;;-2.67;100.00
38558;BME280;24333;42.626;23.308;2023-01-30T08:59:53;92223.25;;;-2.40;100.00
38558;BME280;24333;42.626;23.308;2023-01-30T09:02:19;92202.94;;;-2.55;100.00
38558;BME280;24333;42.626;23.308;2023-01-30T09:04:44;92193.19;;;-2.45;100.00
38558;BME280;24333;42.626;23.308;2023-01-30T09:07:10;92203.81;;;-2.26;100.00
38558;BME280;24333;42.626;23.308;2023-01-30T09:09:42;92217.47;;;-2.14;100.00
38558;BME280;24333;42.626;23.308;2023-01-30T09:12:17;92209.31;;;-2.23;100.00
38558;BME280;24333;42.626;23.308;2023-01-30T09:14:42;92195.28;;;-2.14;100.00
38558;BME280;24333;42.626;23.308;2023-01-30T09:17:08;92200.84;;;-2.11;100.00
38558;BME280;24333;42.626;23.308;2023-01-30T09:19:40;92233.00;;;-1.88;100.00
38558;BME280;24333;42.626;23.308;2023-01-30T09:22:52;92183.00;;;-2.01;100.00
38558;BME280;24333;42.626;23.308;2023-01-30T09:25:27;92213.00;;;-1.77;100.00
38558;BME280;24333;42.626;23.308;2023-01-30T09:27:58;92207.97;;;-1.92;100.00
38558;BME280;24333;42.626;23.308;2023-01-30T09:30:24;92208.25;;;-2.08;100.00
38558;BME280;24333;42.626;23.308;2023-01-30T09:32:50;92199.03;;;-2.01;100.00
38558;BME280;24333;42.626;23.308;2023-01-30T09:35:41;92221.25;;;-1.73;100.00
38558;BME280;24333;42.626;23.308;2023-01-30T09:38:07;92186.88;;;-2.08;100.00
38558;BME280;24333;42.626;23.308;2023-01-30T09:40:36;92203.41;;;-1.78;100.00
38558;BME280;24333;42.626;23.308;2023-01-30T09:43:13;92209.13;;;-1.70;100.00
38558;BME280;24333;42.626;23.308;2023-01-30T09:45:52;92203.28;;;-1.72;100.00
38558;BME280;24333;42.626;23.308;2023-01-30T09:51:38;92202.59;;;-1.64;100.00
38558;BME280;24333;42.626;23.308;2023-01-30T09:54:20;92184.47;;;-1.81;100.00
38558;BME280;24333;42.626;23.308;2023-01-30T09:56:52;92154.31;;;-1.82;100.00
38558;BME280;24333;42.626;23.308;2023-01-30T09:59:26;92169.75;;;-1.79;100.00
38558;BME280;24333;42.626;23.308;2023-01-30T10:04:46;92177.53;;;-1.68;100.00
38558;BME280;24333;42.626;23.308;2023-01-30T10:14:58;92168.41;;;-1.53;100.00
38558;BME280;24333;42.626;23.308;2023-01-30T10:24:09;92130.75;;;-1.94;100.00
38558;BME280;24333;42.626;23.308;2023-01-30T10:27:09;92131.25;;;-1.92;100.00
38558;BME280;24333;42.626;23.308;2023-01-30T10:29:40;92095.31;;;-1.99;100.00
38558;BME280;24333;42.626;23.308;2023-01-30T10:32:29;92114.28;;;-1.73;100.00
38558;BME280;24333;42.626;23.308;2023-01-30T11:05:18;92012.19;;;-3.05;100.00
38558;BME280;24333;42.626;23.308;2023-01-30T11:07:48;92059.63;;;-2.87;100.00
38558;BME280;24333;42.626;23.308;2023-01-30T11:10:30;92058.06;;;-2.74;100.00
38558;BME280;24333;42.626;23.308;2023-01-30T11:13:25;92028.22;;;-2.91;100.00
38558;BME280;24333;42.626;23.308;2023-01-30T11:15:56;92032.66;;;-2.72;100.00
38558;BME280;24333;42.626;23.308;2023-01-30T11:18:48;92046.69;;;-2.80;100.00
38558;BME280;24333;42.626;23.308;2023-01-30T11:21:29;92008.34;;;-2.84;100.00
38558;BME280;24333;42.626;23.308;2023-01-30T11:24:03;92001.72;;;-2.73;100.00
38558;BME280;24333;42.626;23.308;2023-01-30T11:26:44;92015.03;;;-2.45;100.00
38558;BME280;24333;42.626;23.308;2023-01-30T11:29:48;92020.75;;;-2.38;100.00
38558;BME280;24333;42.626;23.308;2023-01-30T11:32:35;92017.97;;;-2.33;100.00
38558;BME280;24333;42.626;23.308;2023-01-30T11:35:26;92007.38;;;-2.24;100.00
38558;BME280;24333;42.626;23.308;2023-01-30T11:38:22;91974.69;;;-2.43;100.00
38558;BME280;24333;42.626;23.308;2023-01-30T12:01:34;91940.31;;;-1.54;100.00
38558;BME280;24333;42.626;23.308;2023-01-30T12:04:05;91951.63;;;-1.25;100.00
38558;BME280;24333;42.626;23.308;2023-01-30T12:06:38;91916.16;;;-1.31;100.00
38558;BME280;24333;42.626;23.308;2023-01-30T12:09:05;91947.81;;;-0.93;100.00
38558;BME280;24333;42.626;23.308;2023-01-30T12:14:39;91944.16;;;-1.06;100.00
38558;BME280;24333;42.626;23.308;2023-01-30T12:20:39;91944.31;;;-1.02;100.00
38558;BME280;24333;42.626;23.308;2023-01-30T12:29:32;91929.19;;;-0.40;100.00
38558;BME280;24333;42.626;23.308;2023-01-30T12:32:33;91886.78;;;-0.64;100.00
38558;BME280;24333;42.626;23.308;2023-01-30T12:35:00;91910.94;;;-0.29;100.00
38558;BME280;24333;42.626;23.308;2023-01-30T12:43:03;91918.22;;;-0.88;100.00
38558;BME280;24333;42.626;23.308;2023-01-30T12:45:38;91885.16;;;-0.83;100.00
38558;BME280;24333;42.626;23.308;2023-01-30T12:56:38;91892.78;;;-0.23;100.00
38558;BME280;24333;42.626;23.308;2023-01-30T13:01:52;91885.19;;;0.14;100.00
38558;BME280;24333;42.626;23.308;2023-01-30T13:07:45;91882.75;;;0.48;100.00
38558;BME280;24333;42.626;23.308;2023-01-30T13:10:45;91893.63;;;0.51;100.00
38558;BME280;24333;42.626;23.308;2023-01-30T13:13:31;91890.78;;;0.56;99.03
38558;BME280;24333;42.626;23.308;2023-01-30T13:19:11;91902.84;;;0.33;95.31
38558;BME280;24333;42.626;23.308;2023-01-30T13:22:11;91856.78;;;0.13;99.21
38558;BME280;24333;42.626;23.308;2023-01-30T13:24:49;91848.94;;;-0.01;100.00
38558;BME280;24333;42.626;23.308;2023-01-30T13:27:21;91852.25;;;0.05;100.00
38558;BME280;24333;42.626;23.308;2023-01-30T13:29:51;91856.78;;;0.13;98.24
38558;BME280;24333;42.626;23.308;2023-01-30T13:32:37;91871.13;;;0.35;98.24
38558;BME280;24333;42.626;23.308;2023-01-30T13:35:19;91826.38;;;0.09;98.51
38558;BME280;24333;42.626;23.308;2023-01-30T13:37:48;91843.38;;;0.22;99.52
38558;BME280;24333;42.626;23.308;2023-01-30T13:40:18;91843.06;;;0.23;99.56
38558;BME280;24333;42.626;23.308;2023-01-30T13:42:58;91820.19;;;0.17;100.00
38558;BME280;24333;42.626;23.308;2023-01-30T13:45:38;91842.81;;;0.46;100.00
38558;BME280;24333;42.626;23.308;2023-01-30T13:51:45;91860.16;;;0.57;94.48
38558;BME280;24333;42.626;23.308;2023-01-30T13:54:50;91837.66;;;0.41;93.64
38558;BME280;24333;42.626;23.308;2023-01-30T14:02:33;91828.34;;;0.38;97.10
38558;BME280;24333;42.626;23.308;2023-01-30T14:04:59;91833.09;;;0.33;100.00
38558;BME280;24333;42.626;23.308;2023-01-30T14:07:41;91820.81;;;0.32;100.00
38558;BME280;24333;42.626;23.308;2023-01-30T14:10:16;91850.59;;;0.30;98.98
38558;BME280;24333;42.626;23.308;2023-01-30T14:12:49;91813.16;;;-0.05;99.45
38558;BME280;24333;42.626;23.308;2023-01-30T14:20:42;91855.59;;;-0.34;94.07
38558;BME280;24333;42.626;23.308;2023-01-30T14:23:19;91868.84;;;-0.46;94.85
38558;BME280;24333;42.626;23.308;2023-01-30T14:25:50;91835.88;;;-0.73;97.67
38558;BME280;24333;42.626;23.308;2023-01-30T14:33:33;91846.28;;;-0.63;100.00
38558;BME280;24333;42.626;23.308;2023-01-30T14:38:34;91850.88;;;-0.37;100.00
38558;BME280;24333;42.626;23.308;2023-01-30T14:41:22;91859.03;;;-0.24;99.98
38558;BME280;24333;42.626;23.308;2023-01-30T14:43:58;91848.19;;;-0.37;99.44
38558;BME280;24333;42.626;23.308;2023-01-30T14:46:45;91848.66;;;-0.52;98.84
38558;BME280;24333;42.626;23.308;2023-01-30T14:49:18;91838.72;;;-0.69;98.74
38558;BME280;24333;42.626;23.308;2023-01-30T14:52:27;91816.16;;;-1.12;100.00
38558;BME280;24333;42.626;23.308;2023-01-30T14:54:59;91814.34;;;-1.26;100.00
38558;BME280;24333;42.626;23.308;2023-01-30T14:57:27;91834.22;;;-1.18;100.00
38558;BME280;24333;42.626;23.308;2023-01-30T15:00:13;91804.72;;;-1.44;100.00
38558;BME280;24333;42.626;23.308;2023-01-30T15:02:46;91787.47;;;-1.79;100.00
38558;BME280;24333;42.626;23.308;2023-01-30T15:05:17;91831.78;;;-1.46;100.00
38558;BME280;24333;42.626;23.308;2023-01-30T15:15:34;91830.66;;;-1.85;100.00
38558;BME280;24333;42.626;23.308;2023-01-30T15:18:09;91832.91;;;-2.10;100.00
38558;BME280;24333;42.626;23.308;2023-01-30T15:29:38;91850.56;;;-2.46;100.00
38558;BME280;24333;42.626;23.308;2023-01-30T15:31:33;91847.16;;;-2.60;100.00
38558;BME280;24333;42.626;23.308;2023-01-30T15:33:58;91837.19;;;-2.69;100.00
38558;BME280;24333;42.626;23.308;2023-01-30T15:36:32;91838.22;;;-2.79;100.00
38558;BME280;24333;42.626;23.308;2023-01-30T15:39:04;91848.78;;;-2.73;100.00
38558;BME280;24333;42.626;23.308;2023-01-30T15:41:35;91841.91;;;-2.88;100.00
38558;BME280;24333;42.626;23.308;2023-01-30T15:44:32;91850.19;;;-2.90;100.00
38558;BME280;24333;42.626;23.308;2023-01-30T15:52:16;91836.25;;;-3.24;100.00
38558;BME280;24333;42.626;23.308;2023-01-30T15:54:50;91829.13;;;-3.28;100.00
38558;BME280;24333;42.626;23.308;2023-01-30T15:57:22;91839.69;;;-3.23;100.00
38558;BME280;24333;42.626;23.308;2023-01-30T15:59:49;91818.19;;;-3.41;100.00
38558;BME280;24333;42.626;23.308;2023-01-30T16:02:33;91826.34;;;-3.37;100.00
38558;BME280;24333;42.626;23.308;2023-01-30T16:07:43;91834.44;;;-3.14;100.00
38558;BME280;24333;42.626;23.308;2023-01-30T16:10:15;91841.94;;;-3.16;100.00
38558;BME280;24333;42.626;23.308;2023-01-30T16:12:41;91807.78;;;-3.28;100.00
38558;BME280;24333;42.626;23.308;2023-01-30T16:15:22;91821.50;;;-3.21;100.00
38558;BME280;24333;42.626;23.308;2023-01-30T16:20:59;91817.22;;;-3.08;100.00
38558;BME280;24333;42.626;23.308;2023-01-30T16:23:30;91819.84;;;-3.17;100.00
38558;BME280;24333;42.626;23.308;2023-01-30T16:25:58;91805.44;;;-3.30;100.00
38558;BME280;24333;42.626;23.308;2023-01-30T16:28:26;91820.75;;;-3.36;100.00
38558;BME280;24333;42.626;23.308;2023-01-30T16:31:00;91818.28;;;-3.32;100.00
38558;BME280;24333;42.626;23.308;2023-01-30T16:33:27;91817.47;;;-3.46;100.00
38558;BME280;24333;42.626;23.308;2023-01-30T16:35:59;91806.94;;;-3.52;100.00
38558;BME280;24333;42.626;23.308;2023-01-30T16:38:38;91817.31;;;-3.50;100.00
38558;BME280;24333;42.626;23.308;2023-01-30T16:41:27;91796.38;;;-3.71;100.00
38558;BME280;24333;42.626;23.308;2023-01-30T16:47:20;91809.97;;;-3.72;100.00
38558;BME280;24333;42.626;23.308;2023-01-30T16:49:48;91806.44;;;-3.82;100.00
38558;BME280;24333;42.626;23.308;2023-01-30T16:52:43;91810.66;;;-3.95;100.00
38558;BME280;24333;42.626;23.308;2023-01-30T16:55:19;91783.63;;;-4.16;100.00
38558;BME280;24333;42.626;23.308;2023-01-30T16:57:57;91803.25;;;-4.12;100.00
38558;BME280;24333;42.626;23.308;2023-01-30T17:00:31;91803.75;;;-4.10;100.00
38558;BME280;24333;42.626;23.308;2023-01-30T17:03:19;91812.94;;;-4.02;100.00
38558;BME280;24333;42.626;23.308;2023-01-30T17:05:46;91802.66;;;-4.09;100.00
38558;BME280;24333;42.626;23.308;2023-01-30T17:11:36;91810.38;;;-3.93;100.00
38558;BME280;24333;42.626;23.308;2023-01-30T17:14:22;91815.59;;;-4.02;100.00
38558;BME280;24333;42.626;23.308;2023-01-30T17:19:25;91828.22;;;-4.08;100.00
38558;BME280;24333;42.626;23.308;2023-01-30T17:21:51;91805.59;;;-4.24;100.00
38558;BME280;24333;42.626;23.308;2023-01-30T17:24:20;91823.41;;;-4.05;100.00
38558;BME280;24333;42.626;23.308;2023-01-30T17:26:48;91801.38;;;-4.11;100.00
38558;BME280;24333;42.626;23.308;2023-01-30T17:29:14;91805.91;;;-4.12;100.00
38558;BME280;24333;42.626;23.308;2023-01-30T17:31:46;91799.91;;;-4.17;100.00
38558;BME280;24333;42.626;23.308;2023-01-30T17:34:18;91815.31;;;-4.00;100.00
38558;BME280;24333;42.626;23.308;2023-01-30T17:37:17;91815.91;;;-4.03;100.00
38558;BME280;24333;42.626;23.308;2023-01-30T17:39:44;91801.78;;;-4.04;100.00
38558;BME280;24333;42.626;23.308;2023-01-30T17:42:12;91808.22;;;-3.91;100.00
38558;BME280;24333;42.626;23.308;2023-01-30T17:44:39;91759.16;;;-4.18;100.00
38558;BME280;24333;42.626;23.308;2023-01-30T17:47:04;91763.78;;;-4.10;100.00
38558;BME280;24333;42.626;23.308;2023-01-30T17:49:31;91793.31;;;-3.92;100.00
38558;BME280;24333;42.626;23.308;2023-01-30T17:51:56;91779.59;;;-3.85;100.00
38558;BME280;24333;42.626;23.308;2023-01-30T17:54:24;91770.53;;;-3.98;100.00
38558;BME280;24333;42.626;23.308;2023-01-30T17:56:53;91788.59;;;-3.95;100.00
38558;BME280;24333;42.626;23.308;2023-01-30T17:59:27;91771.22;;;-4.07;100.00
38558;BME280;24333;42.626;23.308;2023-01-30T18:02:10;91801.91;;;-3.81;100.00
38558;BME280;24333;42.626;23.308;2023-01-30T18:05:19;91790.56;;;-3.73;100.00
38558;BME280;24333;42.626;23.308;2023-01-30T18:07:45;91754.81;;;-3.86;100.00
38558;BME280;24333;42.626;23.308;2023-01-30T18:10:14;91757.69;;;-3.68;100.00
38558;BME280;24333;42.626;23.308;2023-01-30T18:12:45;91748.72;;;-3.86;100.00
38558;BME280;24333;42.626;23.308;2023-01-30T18:15:12;91753.75;;;-3.85;100.00
38558;BME280;24333;42.626;23.308;2023-01-30T18:17:43;91759.16;;;-3.76;100.00
38558;BME280;24333;42.626;23.308;2023-01-30T18:20:12;91771.59;;;-3.71;100.00